Time;durP1;ratioP1;P1;durP2;ratioP2;P2;SDS_P1;SDS_P2;PMS_P1;PMS_P2;Temp;Humidity;BMP_temperature;BMP_pressure;BME280_temperature;BME280_humidity;BME280_pressure;Samples;Min_cycle;Max_cycle;Signal;HPM_P1;HPM_P2
2021/08/27 00:02:21;;;;;;;9.67;5.90;;;13.60;99.90;;;;;;5107960;28;20453;-68
2021/08/27 00:04:48;;;;;;;8.50;5.93;;;13.60;99.90;;;;;;5107383;28;20536;-68
2021/08/27 00:07:15;;;;;;;7.70;5.50;;;13.70;99.90;;;;;;5107688;28;20546;-67
2021/08/27 00:09:42;;;;;;;6.90;5.53;;;13.70;99.90;;;;;;5107044;28;20446;-67
2021/08/27 00:12:10;;;;;;;8.20;5.17;;;13.70;99.90;;;;;;5107613;28;20469;-67
2021/08/27 00:14:37;;;;;;;9.63;5.80;;;13.70;99.90;;;;;;5107445;28;20460;-67
2021/08/27 00:17:05;;;;;;;7.00;5.33;;;13.80;99.90;;;;;;5107646;28;20444;-68
2021/08/27 00:19:32;;;;;;;7.77;4.97;;;13.80;99.90;;;;;;5106979;28;20852;-68
2021/08/27 00:21:59;;;;;;;11.10;5.20;;;13.90;99.90;;;;;;5107226;28;20932;-68
2021/08/27 00:24:26;;;;;;;9.47;5.00;;;14.00;99.90;;;;;;5106960;28;20445;-67
2021/08/27 00:26:53;;;;;;;6.47;4.67;;;14.10;99.90;;;;;;5107365;28;20465;-68
2021/08/27 00:29:20;;;;;;;7.23;5.63;;;14.00;99.90;;;;;;5106658;28;20927;-67
2021/08/27 00:31:47;;;;;;;8.20;4.90;;;14.00;99.90;;;;;;5107289;28;20461;-68
2021/08/27 00:34:15;;;;;;;6.10;4.90;;;14.10;99.90;;;;;;5107176;28;20441;-67
2021/08/27 00:36:42;;;;;;;6.87;5.23;;;14.10;99.90;;;;;;5107653;28;20448;-68
2021/08/27 00:39:09;;;;;;;7.43;4.70;;;14.10;99.90;;;;;;5106374;28;20497;-67
2021/08/27 00:41:36;;;;;;;5.63;4.70;;;14.10;99.90;;;;;;5106876;28;20500;-68
2021/08/27 00:44:02;;;;;;;7.70;4.53;;;14.10;99.90;;;;;;5107083;28;20441;-68
2021/08/27 00:46:29;;;;;;;7.03;5.40;;;14.20;99.90;;;;;;5106822;28;20945;-67
2021/08/27 00:48:56;;;;;;;11.40;6.90;;;14.10;99.90;;;;;;5106913;28;20532;-68
2021/08/27 00:51:24;;;;;;;8.10;5.07;;;14.10;99.90;;;;;;5106658;28;20540;-68
2021/08/27 00:53:51;;;;;;;5.60;4.50;;;14.00;99.90;;;;;;5106885;28;20441;-67
2021/08/27 00:56:18;;;;;;;10.90;4.77;;;14.10;99.90;;;;;;5106815;28;20449;-67
2021/08/27 00:58:45;;;;;;;7.13;4.43;;;14.10;99.90;;;;;;5106880;28;20485;-67
2021/08/27 01:01:12;;;;;;;6.70;3.93;;;14.10;99.90;;;;;;5106375;28;20471;-68
2021/08/27 01:03:39;;;;;;;7.83;4.57;;;14.10;99.90;;;;;;5107131;28;20460;-67
2021/08/27 01:06:15;;;;;;;7.00;5.00;;;14.00;99.90;;;;;;5106396;28;20455;-68
2021/08/27 01:08:52;;;;;;;8.93;4.90;;;14.00;99.90;;;;;;5106728;28;20973;-68
2021/08/27 01:11:25;;;;;;;8.57;5.53;;;13.90;99.90;;;;;;5091978;28;20466;-66
2021/08/27 01:13:56;;;;;;;7.57;4.47;;;14.00;99.90;;;;;;5093222;28;20452;-67
2021/08/27 01:16:27;;;;;;;9.50;4.77;;;14.00;99.90;;;;;;5092650;28;20452;-67
2021/08/27 01:19:10;;;;;;;11.13;5.07;;;14.10;99.90;;;;;;5093108;28;21043;-67
2021/08/27 01:22:01;;;;;;;7.30;5.20;;;14.10;99.90;;;;;;5092489;28;20457;-67
2021/08/27 01:24:31;;;;;;;7.00;5.00;;;14.10;99.90;;;;;;5084343;28;21050;-67
2021/08/27 01:27:02;;;;;;;8.60;4.90;;;14.10;99.90;;;;;;5093712;28;20446;-68
2021/08/27 01:29:38;;;;;;;6.40;4.93;;;14.10;99.90;;;;;;5092356;28;20442;-68
2021/08/27 01:32:10;;;;;;;7.07;4.83;;;14.10;99.90;;;;;;5092459;28;20470;-68
2021/08/27 01:34:40;;;;;;;7.20;5.33;;;14.00;99.90;;;;;;5092069;28;20936;-68
2021/08/27 01:37:10;;;;;;;12.90;5.70;;;14.00;99.90;;;;;;5092660;28;20529;-65
2021/08/27 01:39:39;;;;;;;7.33;4.90;;;14.10;99.90;;;;;;5091983;28;20478;-66
2021/08/27 01:42:09;;;;;;;8.27;4.83;;;14.10;99.90;;;;;;5092466;28;20470;-67
2021/08/27 01:44:38;;;;;;;8.40;5.10;;;14.00;99.90;;;;;;5091511;28;20442;-67
2021/08/27 01:47:07;;;;;;;6.00;4.40;;;13.90;99.90;;;;;;5092297;28;20460;-67
2021/08/27 01:49:34;;;;;;;7.83;5.37;;;13.90;99.90;;;;;;5091047;28;20990;-67
2021/08/27 01:52:05;;;;;;;5.80;5.20;;;13.90;99.90;;;;;;5091756;28;20826;-67
2021/08/27 01:54:32;;;;;;;8.63;5.40;;;13.90;99.90;;;;;;5091259;28;20621;-67
2021/08/27 01:57:00;;;;;;;7.20;4.77;;;13.80;99.90;;;;;;5091775;28;20987;-67
2021/08/27 01:59:30;;;;;;;5.43;4.67;;;13.80;99.90;;;;;;5090774;28;20478;-67
2021/08/27 02:01:57;;;;;;;7.07;4.70;;;13.80;99.90;;;;;;5091641;28;20471;-67
2021/08/27 02:04:26;;;;;;;8.97;5.50;;;13.80;99.90;;;;;;5091138;28;20457;-67
2021/08/27 02:06:53;;;;;;;7.33;5.70;;;13.70;99.90;;;;;;5091517;28;20450;-67
2021/08/27 02:09:22;;;;;;;8.20;5.13;;;13.70;99.90;;;;;;5090582;28;20446;-67
2021/08/27 02:11:50;;;;;;;10.27;5.10;;;13.70;99.90;;;;;;5089216;28;20466;-67
2021/08/27 02:14:18;;;;;;;5.80;4.87;;;13.70;99.90;;;;;;5090968;28;20442;-67
2021/08/27 02:16:45;;;;;;;7.23;5.07;;;13.70;99.90;;;;;;5091325;28;20446;-67
2021/08/27 02:19:13;;;;;;;8.10;5.63;;;13.70;99.90;;;;;;5090451;28;21003;-67
2021/08/27 02:21:43;;;;;;;6.60;4.90;;;13.70;99.90;;;;;;5089952;28;20472;-67
2021/08/27 02:24:14;;;;;;;7.50;5.47;;;13.70;99.90;;;;;;5091243;28;20438;-67
2021/08/27 02:26:45;;;;;;;7.87;5.67;;;13.70;99.90;;;;;;5091139;28;20457;-66
2021/08/27 02:29:14;;;;;;;9.27;5.50;;;13.70;99.90;;;;;;5090171;28;20457;-67
2021/08/27 02:31:44;;;;;;;9.50;6.10;;;13.70;99.90;;;;;;5091778;28;20540;-67
2021/08/27 02:34:14;;;;;;;10.53;6.83;;;13.70;99.90;;;;;;5091300;28;20454;-67
2021/08/27 02:36:42;;;;;;;7.63;6.80;;;13.70;99.90;;;;;;5091195;28;20584;-67
2021/08/27 02:39:09;;;;;;;10.50;6.50;;;13.70;99.90;;;;;;5090421;28;20474;-66
2021/08/27 02:41:36;;;;;;;7.43;6.40;;;13.80;99.90;;;;;;5091313;28;21054;-67
2021/08/27 02:44:05;;;;;;;9.50;6.60;;;13.80;99.90;;;;;;5091255;28;20442;-67
2021/08/27 02:46:32;;;;;;;11.47;6.97;;;13.80;99.90;;;;;;5090483;28;20442;-67
2021/08/27 02:48:59;;;;;;;7.07;5.77;;;13.80;99.90;;;;;;5090530;28;20523;-67
2021/08/27 02:51:34;;;;;;;7.90;6.60;;;13.80;99.90;;;;;;5090591;28;20466;-67
2021/08/27 02:54:04;;;;;;;8.30;6.03;;;13.80;99.90;;;;;;5091109;28;20444;-68
2021/08/27 02:56:35;;;;;;;6.87;5.50;;;13.90;99.90;;;;;;5090690;28;20438;-67
2021/08/27 02:59:10;;;;;;;10.77;5.87;;;13.90;99.90;;;;;;5089961;28;20486;-67
2021/08/27 03:01:40;;;;;;;8.13;5.60;;;13.80;99.90;;;;;;5090712;28;20462;-66
2021/08/27 03:04:14;;;;;;;6.80;5.87;;;13.80;99.90;;;;;;5090907;28;20512;-66
2021/08/27 03:06:47;;;;;;;9.77;6.77;;;13.90;99.90;;;;;;5090511;28;20541;-67
2021/08/27 03:09:15;;;;;;;7.97;6.33;;;13.90;99.90;;;;;;5090094;28;20429;-66
2021/08/27 03:11:48;;;;;;;9.03;5.80;;;13.90;99.90;;;;;;5090718;28;20557;-65
2021/08/27 03:14:23;;;;;;;7.13;6.23;;;13.90;99.90;;;;;;5090797;28;20450;-67
2021/08/27 03:16:52;;;;;;;6.93;4.80;;;13.90;99.90;;;;;;5091283;28;20444;-67
2021/08/27 03:19:24;;;;;;;8.53;5.70;;;13.90;99.90;;;;;;5090708;28;20485;-68
2021/08/27 03:21:58;;;;;;;6.77;6.03;;;13.90;99.90;;;;;;5090860;28;20508;-67
2021/08/27 03:24:31;;;;;;;6.50;5.20;;;13.80;99.90;;;;;;5090566;28;20453;-67
2021/08/27 03:27:01;;;;;;;7.63;6.30;;;13.90;99.90;;;;;;5091017;28;20456;-67
2021/08/27 03:29:34;;;;;;;8.13;5.50;;;13.90;99.90;;;;;;5089633;28;20442;-67
2021/08/27 03:32:01;;;;;;;7.73;5.60;;;13.80;99.90;;;;;;5090524;28;20831;-67
2021/08/27 03:34:29;;;;;;;6.30;5.00;;;13.80;99.90;;;;;;5089391;28;20521;-66
2021/08/27 03:36:58;;;;;;;7.83;5.57;;;13.80;99.90;;;;;;5090224;28;20831;-66
2021/08/27 03:39:26;;;;;;;7.83;5.90;;;13.70;99.90;;;;;;5089340;28;20482;-66
2021/08/27 03:41:54;;;;;;;8.03;5.40;;;13.80;99.90;;;;;;5090261;28;20476;-66
2021/08/27 03:44:22;;;;;;;7.80;6.10;;;13.90;99.90;;;;;;5089813;28;20442;-66
2021/08/27 03:46:51;;;;;;;8.30;4.90;;;13.90;99.90;;;;;;5089859;28;20442;-66
2021/08/27 03:49:18;;;;;;;9.27;5.67;;;13.90;99.90;;;;;;5089723;28;20530;-66
2021/08/27 03:51:45;;;;;;;6.50;5.70;;;14.00;99.90;;;;;;5089982;28;20469;-66
2021/08/27 03:54:14;;;;;;;7.53;6.73;;;13.90;99.90;;;;;;5089524;28;20449;-66
2021/08/27 03:56:43;;;;;;;17.80;7.07;;;14.00;99.90;;;;;;5089727;28;20445;-66
2021/08/27 03:59:11;;;;;;;9.30;6.53;;;13.90;99.90;;;;;;5089154;28;20489;-66
2021/08/27 04:01:38;;;;;;;9.60;7.50;;;14.00;99.90;;;;;;5089678;28;20578;-66
2021/08/27 04:04:07;;;;;;;11.87;8.40;;;13.90;99.90;;;;;;5090067;28;20529;-66
2021/08/27 04:06:34;;;;;;;10.00;8.27;;;13.90;99.90;;;;;;5089836;28;20446;-66
2021/08/27 04:09:01;;;;;;;10.00;8.23;;;13.90;99.90;;;;;;5089173;28;20994;-68
2021/08/27 04:11:28;;;;;;;9.97;8.87;;;13.90;99.90;;;;;;5089531;28;20549;-67
2021/08/27 04:13:54;;;;;;;12.03;9.57;;;13.90;99.90;;;;;;5089387;28;20444;-67
2021/08/27 04:16:21;;;;;;;13.67;10.57;;;13.80;99.90;;;;;;5089556;28;20533;-67
2021/08/27 04:18:48;;;;;;;13.57;10.10;;;13.80;99.90;;;;;;5089745;28;20446;-67
2021/08/27 04:21:17;;;;;;;11.80;9.50;;;13.70;99.90;;;;;;5088754;28;20544;-67
2021/08/27 04:23:44;;;;;;;11.50;9.97;;;13.70;99.90;;;;;;5089610;28;20474;-67
2021/08/27 04:26:11;;;;;;;15.20;9.57;;;13.70;99.90;;;;;;5089808;28;20525;-67
2021/08/27 04:28:37;;;;;;;17.73;10.93;;;13.70;99.90;;;;;;5089696;28;21360;-67
2021/08/27 04:31:04;;;;;;;15.03;10.40;;;13.70;99.90;;;;;;5089001;28;20866;-66
2021/08/27 04:33:31;;;;;;;14.80;10.27;;;13.80;99.90;;;;;;5089630;28;20464;-67
2021/08/27 04:35:58;;;;;;;11.63;9.43;;;13.70;99.90;;;;;;5088764;28;20489;-67
2021/08/27 04:38:26;;;;;;;11.57;8.27;;;13.80;99.90;;;;;;5089414;28;20540;-67
2021/08/27 04:40:53;;;;;;;13.80;8.70;;;13.80;99.90;;;;;;5088692;28;20521;-67
2021/08/27 04:43:20;;;;;;;10.97;9.83;;;13.80;99.90;;;;;;5089549;28;20556;-67
2021/08/27 04:45:47;;;;;;;10.50;8.27;;;13.80;99.90;;;;;;5091442;28;20477;-67
2021/08/27 04:48:14;;;;;;;11.20;8.47;;;13.70;99.90;;;;;;5094231;28;20532;-67
2021/08/27 04:50:41;;;;;;;12.40;9.60;;;13.70;99.90;;;;;;5092586;28;20960;-67
2021/08/27 04:53:07;;;;;;;10.90;8.60;;;13.70;99.90;;;;;;5093714;28;21180;-67
2021/08/27 04:55:36;;;;;;;10.67;9.00;;;13.70;99.90;;;;;;5092789;28;20958;-67
2021/08/27 04:58:03;;;;;;;10.40;8.50;;;13.70;99.90;;;;;;5093364;28;20454;-67
2021/08/27 05:00:30;;;;;;;11.50;8.43;;;13.70;99.90;;;;;;5092280;28;20486;-66
2021/08/27 05:02:57;;;;;;;10.60;8.57;;;13.80;99.90;;;;;;5092827;28;20465;-67
2021/08/27 05:05:24;;;;;;;16.83;11.30;;;13.80;99.90;;;;;;5092710;28;20473;-67
2021/08/27 05:07:51;;;;;;;15.63;8.87;;;13.80;99.90;;;;;;5092927;28;20529;-67
2021/08/27 05:10:18;;;;;;;10.53;9.43;;;13.80;99.90;;;;;;5092398;28;20481;-67
2021/08/27 05:12:46;;;;;;;10.43;9.07;;;13.80;99.90;;;;;;5093250;28;20556;-67
2021/08/27 05:15:13;;;;;;;10.53;8.70;;;13.80;99.90;;;;;;5093092;28;20545;-67
2021/08/27 05:17:41;;;;;;;11.00;9.80;;;13.80;99.90;;;;;;5093019;28;20485;-67
2021/08/27 05:20:10;;;;;;;12.73;10.73;;;13.80;99.90;;;;;;5092293;28;20470;-67
2021/08/27 05:22:36;;;;;;;13.50;10.23;;;13.80;99.90;;;;;;5092588;28;20991;-71
2021/08/27 05:25:04;;;;;;;10.83;9.70;;;13.80;99.90;;;;;;5092248;28;20914;-68
2021/08/27 05:27:31;;;;;;;11.67;10.47;;;13.80;99.90;;;;;;5092761;28;20533;-67
2021/08/27 05:29:59;;;;;;;12.20;10.17;;;13.80;99.90;;;;;;5091866;28;20446;-68
2021/08/27 05:32:27;;;;;;;12.30;10.40;;;13.90;99.90;;;;;;5092392;28;20550;-67
2021/08/27 05:34:54;;;;;;;14.40;11.20;;;13.90;99.90;;;;;;5091592;28;20940;-68
2021/08/27 05:37:21;;;;;;;12.97;10.63;;;14.00;99.90;;;;;;5092610;28;20862;-67
2021/08/27 05:39:48;;;;;;;13.13;10.33;;;14.10;99.90;;;;;;5091447;28;20488;-67
2021/08/27 05:42:15;;;;;;;17.13;11.90;;;14.20;99.90;;;;;;5092467;28;20913;-67
2021/08/27 05:44:42;;;;;;;11.73;10.20;;;14.30;99.90;;;;;;5091997;28;20446;-68
2021/08/27 05:47:11;;;;;;;13.07;11.40;;;14.40;99.90;;;;;;5092082;28;20537;-67
2021/08/27 05:49:38;;;;;;;14.37;10.93;;;14.40;99.90;;;;;;5091238;28;21283;-65
2021/08/27 05:52:06;;;;;;;19.10;13.20;;;14.40;99.90;;;;;;5091887;28;20470;-65
2021/08/27 05:54:32;;;;;;;16.63;10.57;;;14.30;99.90;;;;;;5091977;28;20521;-65
2021/08/27 05:57:01;;;;;;;17.83;13.33;;;14.30;99.90;;;;;;5091976;28;20447;-65
2021/08/27 05:59:28;;;;;;;14.47;10.73;;;14.30;99.90;;;;;;5091161;28;20552;-65
2021/08/27 06:01:55;;;;;;;15.20;11.50;;;14.30;99.90;;;;;;5091958;28;20494;-65
2021/08/27 06:04:23;;;;;;;16.23;12.17;;;14.40;99.90;;;;;;5091275;28;20530;-65
2021/08/27 06:06:53;;;;;;;13.50;9.87;;;14.40;99.90;;;;;;5092023;28;20525;-65
2021/08/27 06:09:20;;;;;;;15.87;10.97;;;14.50;99.90;;;;;;5090914;28;20450;-66
2021/08/27 06:11:47;;;;;;;16.73;9.40;;;14.50;99.90;;;;;;5091664;28;20553;-66
2021/08/27 06:14:14;;;;;;;11.60;10.40;;;14.50;99.90;;;;;;5091296;28;20476;-65
2021/08/27 06:16:41;;;;;;;9.87;8.87;;;14.50;99.90;;;;;;5091605;28;20545;-68
2021/08/27 06:19:08;;;;;;;11.03;9.93;;;14.50;99.90;;;;;;5090620;28;20494;-66
2021/08/27 06:21:38;;;;;;;10.30;9.30;;;14.50;99.90;;;;;;5091502;28;20543;-67
2021/08/27 06:24:06;;;;;;;10.40;9.37;;;14.50;99.90;;;;;;5091731;28;20438;-66
2021/08/27 06:26:33;;;;;;;10.33;9.23;;;14.50;99.90;;;;;;5091175;28;20482;-66
2021/08/27 06:29:03;;;;;;;9.77;8.77;;;14.50;99.90;;;;;;5090898;28;20533;-66
2021/08/27 06:31:30;;;;;;;13.93;8.80;;;14.40;99.90;;;;;;5091503;28;20467;-66
2021/08/27 06:33:57;;;;;;;9.10;7.83;;;14.30;99.90;;;;;;5091761;28;20486;-66
2021/08/27 06:36:25;;;;;;;11.60;9.23;;;14.20;99.90;;;;;;5090870;28;20473;-67
2021/08/27 06:38:53;;;;;;;10.87;9.00;;;14.10;99.90;;;;;;5091243;28;20541;-66
2021/08/27 06:41:20;;;;;;;12.27;8.90;;;14.20;99.90;;;;;;5090713;28;20564;-66
2021/08/27 06:43:47;;;;;;;10.03;8.10;;;14.30;99.90;;;;;;5091218;28;20511;-67
2021/08/27 06:46:16;;;;;;;8.20;6.77;;;14.40;99.90;;;;;;5090923;28;20442;-66
2021/08/27 06:48:44;;;;;;;8.47;7.60;;;14.40;99.90;;;;;;5091069;28;20448;-66
2021/08/27 06:51:11;;;;;;;9.40;8.10;;;14.60;99.90;;;;;;5090022;28;20443;-66
2021/08/27 06:53:38;;;;;;;9.07;7.50;;;14.70;99.90;;;;;;5090986;28;20489;-66
2021/08/27 06:56:07;;;;;;;9.77;8.77;;;14.90;99.90;;;;;;5090908;28;20447;-66
2021/08/27 06:58:34;;;;;;;10.23;7.13;;;15.10;99.90;;;;;;5090339;28;20458;-66
2021/08/27 07:01:01;;;;;;;11.87;6.97;;;15.30;99.90;;;;;;5090098;28;20569;-67
2021/08/27 07:03:28;;;;;;;9.63;6.63;;;15.40;99.90;;;;;;5090981;28;20468;-66
2021/08/27 07:05:56;;;;;;;7.53;5.60;;;15.40;99.90;;;;;;5090464;28;20481;-67
2021/08/27 07:08:23;;;;;;;8.77;5.70;;;15.40;99.90;;;;;;5090311;28;20504;-66
2021/08/27 07:10:50;;;;;;;5.90;5.30;;;15.30;99.90;;;;;;5090024;28;20920;-66
2021/08/27 07:13:18;;;;;;;28.63;7.50;;;15.30;99.90;;;;;;5090141;28;20541;-66
2021/08/27 07:15:45;;;;;;;7.73;6.00;;;15.30;99.90;;;;;;5090377;28;20546;-66
2021/08/27 07:18:12;;;;;;;8.27;6.00;;;15.30;99.90;;;;;;5090425;28;20887;-66
2021/08/27 07:20:40;;;;;;;6.73;4.43;;;15.40;99.90;;;;;;5089230;28;20561;-66
2021/08/27 07:23:07;;;;;;;9.37;5.20;;;15.40;99.90;;;;;;5090424;28;20545;-66
2021/08/27 07:25:34;;;;;;;6.57;4.70;;;15.50;99.90;;;;;;5089197;28;21010;-72
2021/08/27 07:28:01;;;;;;;6.30;3.63;;;15.50;99.90;;;;;;5090701;28;20521;-67
2021/08/27 07:30:29;;;;;;;7.77;4.53;;;15.50;99.90;;;;;;5089361;28;20546;-67
2021/08/27 07:32:56;;;;;;;5.33;4.33;;;15.50;99.90;;;;;;5089990;28;20472;-66
2021/08/27 07:35:23;;;;;;;10.50;4.13;;;15.60;99.90;;;;;;5089993;28;20582;-66
2021/08/27 07:37:49;;;;;;;5.43;3.37;;;15.70;99.90;;;;;;5090287;28;20541;-67
2021/08/27 07:40:17;;;;;;;6.30;3.97;;;15.80;99.90;;;;;;5088875;28;20489;-66
2021/08/27 07:42:44;;;;;;;5.83;4.00;;;15.90;99.90;;;;;;5089903;28;20570;-66
2021/08/27 07:45:13;;;;;;;6.87;3.10;;;16.00;99.90;;;;;;5089719;28;20450;-66
2021/08/27 07:47:42;;;;;;;7.27;3.30;;;16.00;99.90;;;;;;5089841;28;20525;-66
2021/08/27 07:50:10;;;;;;;8.43;3.43;;;16.20;99.90;;;;;;5089268;28;20516;-66
2021/08/27 07:52:38;;;;;;;5.37;3.47;;;16.50;99.90;;;;;;5089355;28;20476;-66
2021/08/27 07:55:06;;;;;;;6.17;3.33;;;16.70;99.90;;;;;;5089262;28;20495;-64
2021/08/27 07:57:33;;;;;;;4.90;2.80;;;16.60;99.90;;;;;;5089721;28;20442;-65
2021/08/27 08:00:01;;;;;;;6.20;4.90;;;16.60;99.90;;;;;;5088851;28;20426;-66
2021/08/27 08:02:27;;;;;;;8.13;4.80;;;16.50;99.90;;;;;;5088406;28;20959;-66
2021/08/27 08:04:56;;;;;;;4.97;3.33;;;16.50;99.90;;;;;;5089406;28;20477;-66
2021/08/27 08:07:23;;;;;;;5.30;4.13;;;16.50;99.90;;;;;;5089498;28;20454;-66
2021/08/27 08:09:49;;;;;;;8.87;4.20;;;16.50;99.90;;;;;;5088850;28;20529;-65
2021/08/27 08:12:16;;;;;;;4.87;3.40;;;16.70;99.90;;;;;;5088179;28;20475;-66
2021/08/27 08:14:43;;;;;;;4.17;2.80;;;16.90;99.90;;;;;;5088534;28;20473;-66
2021/08/27 08:17:10;;;;;;;6.30;2.70;;;17.00;99.90;;;;;;5089554;28;20482;-66
2021/08/27 08:19:37;;;;;;;4.20;2.97;;;17.10;99.90;;;;;;5089075;28;20492;-67
2021/08/27 08:22:06;;;;;;;3.40;2.70;;;17.10;99.90;;;;;;5093435;28;20485;-66
2021/08/27 08:24:33;;;;;;;3.90;2.50;;;17.00;99.90;;;;;;5093276;28;20889;-66
2021/08/27 08:26:59;;;;;;;5.73;3.00;;;16.80;99.90;;;;;;5093389;28;20468;-66
2021/08/27 08:29:26;;;;;;;6.53;2.50;;;16.60;99.90;;;;;;5092759;28;20532;-71
2021/08/27 08:31:53;;;;;;;3.90;2.87;;;16.70;99.90;;;;;;5093251;28;20466;-66
2021/08/27 08:34:20;;;;;;;4.30;2.50;;;17.10;99.90;;;;;;5093379;28;20438;-66
2021/08/27 08:36:47;;;;;;;4.17;2.37;;;17.20;99.90;;;;;;5085048;28;20444;-66
2021/08/27 08:39:16;;;;;;;4.20;2.40;;;17.10;99.90;;;;;;5071236;28;20482;-66
2021/08/27 08:41:48;;;;;;;4.10;2.30;;;16.80;99.90;;;;;;5067793;28;20620;-66
2021/08/27 08:44:15;;;;;;;3.40;2.40;;;16.70;99.90;;;;;;5071949;28;20439;-66
2021/08/27 08:46:45;;;;;;;4.77;3.00;;;17.00;99.90;;;;;;5072577;28;20895;-66
2021/08/27 08:49:14;;;;;;;3.37;2.70;;;17.00;99.90;;;;;;5065783;28;20504;-66
2021/08/27 08:51:44;;;;;;;4.73;2.10;;;17.00;99.90;;;;;;5064955;28;20558;-66
2021/08/27 08:54:13;;;;;;;6.07;2.50;;;16.70;99.90;;;;;;5070116;28;20463;-66
2021/08/27 08:56:43;;;;;;;5.77;2.20;;;16.50;99.90;;;;;;5070671;28;20812;-66
2021/08/27 08:59:11;;;;;;;5.73;2.87;;;16.70;99.90;;;;;;5069567;28;20455;-67
2021/08/27 09:01:38;;;;;;;5.23;2.53;;;17.20;99.90;;;;;;5070229;28;20513;-68
2021/08/27 09:04:07;;;;;;;4.47;2.90;;;17.50;99.90;;;;;;5072911;28;20546;-67
2021/08/27 09:06:35;;;;;;;3.87;2.20;;;17.60;99.90;;;;;;5066273;28;20474;-67
2021/08/27 09:09:03;;;;;;;4.47;2.47;;;17.50;99.90;;;;;;5061587;28;20483;-67
2021/08/27 09:11:31;;;;;;;4.70;2.30;;;17.50;99.90;;;;;;5068088;28;20459;-67
2021/08/27 09:14:01;;;;;;;6.17;2.50;;;17.60;99.90;;;;;;5072314;28;20545;-67
2021/08/27 09:16:31;;;;;;;4.20;1.90;;;17.70;99.90;;;;;;5071786;28;20431;-67
2021/08/27 09:18:58;;;;;;;3.53;1.90;;;17.60;99.90;;;;;;5071493;28;20953;-67
2021/08/27 09:21:35;;;;;;;2.97;1.70;;;17.40;99.90;;;;;;5071797;28;20485;-68
2021/08/27 09:24:24;;;;;;;5.73;2.00;;;17.10;99.90;;;;;;5061874;28;20525;-68
2021/08/27 09:26:55;;;;;;;2.90;1.73;;;17.10;99.90;;;;;;5070639;28;20439;-67
2021/08/27 09:29:39;;;;;;;3.37;2.00;;;17.60;99.90;;;;;;5063141;28;20451;-66
2021/08/27 09:32:28;;;;;;;4.17;1.90;;;18.50;99.90;;;;;;5067619;28;20510;-66
2021/08/27 09:35:05;;;;;;;2.70;1.70;;;19.60;99.90;;;;;;5069316;28;21205;-66
2021/08/27 09:37:40;;;;;;;4.80;1.90;;;19.80;99.90;;;;;;5070491;28;20439;-67
2021/08/27 09:40:09;;;;;;;3.43;2.07;;;19.40;99.90;;;;;;5068424;28;20503;-67
2021/08/27 09:42:38;;;;;;;6.87;1.97;;;18.80;99.90;;;;;;5070280;28;20570;-67
2021/08/27 09:45:08;;;;;;;5.67;2.17;;;18.40;99.90;;;;;;5070022;28;20938;-66
2021/08/27 09:47:35;;;;;;;5.23;2.63;;;18.50;99.90;;;;;;5071269;28;20463;-67
2021/08/27 09:50:22;;;;;;;4.00;1.97;;;18.40;99.90;;;;;;5065084;28;20534;-69
2021/08/27 09:52:57;;;;;;;7.07;2.07;;;18.20;99.90;;;;;;5067955;28;20550;-66
2021/08/27 09:55:24;;;;;;;4.40;2.40;;;18.40;99.90;;;;;;5067245;28;20450;-67
2021/08/27 09:57:52;;;;;;;4.90;2.10;;;19.10;99.90;;;;;;5060155;28;20939;-67
2021/08/27 10:00:22;;;;;;;4.60;1.90;;;19.50;99.90;;;;;;5067480;28;20451;-67
2021/08/27 10:02:50;;;;;;;4.60;2.07;;;19.20;99.90;;;;;;5067241;28;20482;-68
2021/08/27 10:05:17;;;;;;;5.23;2.20;;;19.30;99.90;;;;;;5067016;28;20530;-67
2021/08/27 10:07:45;;;;;;;5.30;1.80;;;19.70;99.90;;;;;;5068755;28;20482;-67
2021/08/27 10:10:14;;;;;;;4.93;2.23;;;20.20;99.90;;;;;;5068662;28;20447;-67
2021/08/27 10:12:43;;;;;;;4.47;2.27;;;20.30;99.90;;;;;;5065105;28;20540;-68
2021/08/27 10:15:11;;;;;;;4.63;1.90;;;20.10;99.90;;;;;;5067792;28;20449;-67
2021/08/27 10:17:41;;;;;;;3.77;2.03;;;19.90;99.90;;;;;;5068370;28;20453;-69
2021/08/27 10:20:11;;;;;;;4.13;1.77;;;20.10;99.90;;;;;;5066414;28;20472;-68
2021/08/27 10:22:40;;;;;;;5.13;1.97;;;20.70;99.90;;;;;;5064307;28;21031;-67
2021/08/27 10:25:09;;;;;;;5.30;2.10;;;20.80;99.90;;;;;;5067640;28;20548;-66
2021/08/27 10:27:38;;;;;;;5.07;2.47;;;20.10;99.90;;;;;;5068381;28;21064;-67
2021/08/27 10:30:07;;;;;;;5.33;2.80;;;19.80;99.90;;;;;;5068450;28;20970;-68
2021/08/27 10:32:52;;;;;;;5.20;3.00;;;19.70;99.90;;;;;;5064205;28;20491;-69
2021/08/27 10:35:52;;;;;;;3.53;2.67;;;19.80;99.90;;;;;;5066674;28;20505;-67
2021/08/27 10:38:42;;;;;;;6.27;3.03;;;20.20;99.90;;;;;;5048725;28;20440;-67
2021/08/27 10:41:15;;;;;;;4.90;2.53;;;19.70;99.90;;;;;;5047855;28;20514;-67
2021/08/27 10:43:52;;;;;;;5.67;2.47;;;19.20;99.90;;;;;;5047275;28;21119;-68
2021/08/27 10:46:19;;;;;;;5.97;3.23;;;18.80;99.90;;;;;;5047688;28;20535;-65
2021/08/27 10:48:53;;;;;;;3.60;3.00;;;18.50;99.90;;;;;;5048482;28;20456;-65
2021/08/27 10:51:34;;;;;;;3.97;3.27;;;18.20;99.90;;;;;;5048095;28;20823;-66
2021/08/27 10:54:01;;;;;;;4.17;3.37;;;17.80;99.90;;;;;;5064390;28;20505;-67
2021/08/27 10:56:46;;;;;;;5.00;3.60;;;17.60;99.90;;;;;;5062554;28;20478;-69
2021/08/27 10:59:15;;;;;;;3.83;3.20;;;17.50;99.90;;;;;;5068233;28;20470;-67
2021/08/27 11:01:43;;;;;;;7.77;3.93;;;17.30;99.90;;;;;;5069132;28;20478;-68
2021/08/27 11:04:26;;;;;;;5.50;3.40;;;17.10;99.90;;;;;;5069266;28;20574;-70
2021/08/27 11:06:55;;;;;;;7.27;4.03;;;16.80;99.90;;;;;;5065378;28;20533;-67
2021/08/27 11:09:24;;;;;;;7.50;4.10;;;16.60;99.90;;;;;;5062247;28;21262;-67
2021/08/27 11:12:10;;;;;;;5.27;4.17;;;16.50;99.90;;;;;;5068268;28;20486;-67
2021/08/27 11:14:37;;;;;;;5.10;3.57;;;16.50;99.90;;;;;;5062933;28;20427;-67
2021/08/27 11:17:06;;;;;;;5.50;3.80;;;16.50;99.90;;;;;;5068759;28;20541;-67
2021/08/27 11:19:36;;;;;;;4.60;3.30;;;16.70;99.90;;;;;;5068030;28;20496;-67
2021/08/27 11:22:24;;;;;;;6.07;4.07;;;17.00;99.90;;;;;;5069131;28;21257;-67
2021/08/27 11:25:17;;;;;;;5.50;3.40;;;17.30;99.90;;;;;;5068498;28;20450;-67
2021/08/27 11:28:09;;;;;;;4.77;3.60;;;17.40;99.90;;;;;;5067117;28;20454;-67
2021/08/27 11:30:37;;;;;;;3.73;3.10;;;17.40;99.90;;;;;;5065836;28;20534;-66
2021/08/27 11:33:04;;;;;;;5.33;3.60;;;17.60;99.90;;;;;;5061401;28;20462;-67
2021/08/27 11:35:45;;;;;;;4.20;3.30;;;18.00;99.90;;;;;;5062727;28;20448;-67
2021/08/27 11:38:12;;;;;;;4.60;3.20;;;18.90;99.90;;;;;;5067860;28;20827;-68
2021/08/27 11:40:39;;;;;;;6.43;3.70;;;20.10;99.90;;;;;;5067220;28;20479;-67
2021/08/27 11:43:06;;;;;;;5.10;3.50;;;20.80;99.90;;;;;;5069089;28;20576;-67
2021/08/27 11:45:34;;;;;;;5.63;3.80;;;20.50;99.90;;;;;;5067779;28;20526;-67
2021/08/27 11:48:07;;;;;;;5.20;4.00;;;19.60;99.90;;;;;;5062994;28;20447;-67
2021/08/27 11:50:38;;;;;;;5.77;3.77;;;18.90;99.90;;;;;;5063496;28;20803;-67
2021/08/27 11:53:07;;;;;;;7.33;3.83;;;18.40;99.90;;;;;;5060727;28;21257;-66
2021/08/27 11:55:42;;;;;;;4.60;3.93;;;17.90;99.90;;;;;;5066377;28;20462;-67
2021/08/27 11:58:10;;;;;;;5.37;3.60;;;17.50;99.90;;;;;;5068379;28;20461;-66
2021/08/27 12:00:38;;;;;;;5.33;3.50;;;17.20;99.90;;;;;;5068166;28;20969;-64
2021/08/27 12:03:05;;;;;;;5.40;3.43;;;17.20;99.90;;;;;;5067634;28;20478;-65
2021/08/27 12:05:35;;;;;;;5.00;3.33;;;17.40;99.90;;;;;;5065837;28;20539;-65
2021/08/27 12:08:03;;;;;;;4.60;3.40;;;17.60;99.90;;;;;;5068617;28;21010;-65
2021/08/27 12:10:32;;;;;;;5.20;3.43;;;17.80;99.90;;;;;;5068110;28;20449;-65
2021/08/27 12:13:00;;;;;;;6.20;4.40;;;18.10;99.90;;;;;;5068448;28;20462;-66
2021/08/27 12:15:30;;;;;;;7.10;4.00;;;18.30;99.90;;;;;;5069176;28;20483;-66
2021/08/27 12:17:59;;;;;;;6.17;3.80;;;18.30;99.90;;;;;;5064500;28;20463;-65
2021/08/27 12:20:30;;;;;;;5.20;3.90;;;18.40;99.90;;;;;;5062137;28;20455;-67
2021/08/27 12:23:02;;;;;;;5.07;3.57;;;18.80;99.90;;;;;;5057922;28;20484;-67
2021/08/27 12:25:32;;;;;;;5.17;3.07;;;19.40;99.90;;;;;;5063643;28;20455;-66
2021/08/27 12:27:59;;;;;;;8.33;3.00;;;19.60;99.90;;;;;;5068587;28;20471;-64
2021/08/27 12:30:27;;;;;;;4.10;2.90;;;19.40;99.90;;;;;;5067987;28;20521;-65
2021/08/27 12:32:57;;;;;;;6.53;2.90;;;19.40;99.90;;;;;;5069328;28;20976;-66
2021/08/27 12:35:29;;;;;;;5.47;2.50;;;19.50;99.90;;;;;;5068765;28;20489;-65
2021/08/27 12:37:59;;;;;;;3.50;2.00;;;19.70;99.90;;;;;;5069119;28;20440;-65
2021/08/27 12:40:27;;;;;;;5.57;3.03;;;19.70;99.90;;;;;;5068010;28;20443;-65
2021/08/27 12:43:04;;;;;;;3.43;1.90;;;19.80;99.90;;;;;;5068748;28;20514;-65
2021/08/27 12:45:45;;;;;;;4.70;1.80;;;19.80;99.90;;;;;;5068017;28;20530;-66
2021/08/27 12:48:15;;;;;;;6.20;3.10;;;20.30;99.90;;;;;;5064963;28;20543;-64
2021/08/27 12:50:47;;;;;;;6.30;2.50;;;20.30;99.90;;;;;;5064077;28;20890;-64
2021/08/27 12:53:17;;;;;;;3.60;2.17;;;20.40;99.90;;;;;;5063801;28;20455;-64
2021/08/27 12:55:44;;;;;;;4.13;2.30;;;20.60;99.90;;;;;;5057684;28;20459;-65